createdAt,value
2022-09-30T00:46:02.406Z,8.50
2022-09-30T00:48:36.697Z,8.60
2022-09-30T00:51:07.509Z,8.60
2022-09-30T00:53:42.565Z,8.60
2022-09-30T00:56:23.942Z,8.60
2022-09-30T00:59:01.779Z,8.60
2022-09-30T01:01:28.821Z,8.60
2022-09-30T01:04:00.409Z,8.60
2022-09-30T01:06:28.281Z,8.70
2022-09-30T01:08:58.581Z,8.70
2022-09-30T01:11:28.813Z,8.70
2022-09-30T01:14:07.290Z,8.70
2022-09-30T01:16:34.933Z,8.70
2022-09-30T01:19:02.468Z,8.70
2022-09-30T01:21:47.414Z,8.80
2022-09-30T01:24:29.326Z,8.80
2022-09-30T01:26:59.543Z,8.80
2022-09-30T01:29:56.330Z,8.80
2022-09-30T01:32:39.610Z,8.80
2022-09-30T01:35:25.038Z,8.80
2022-09-30T01:38:15.921Z,8.90
2022-09-30T01:40:55.149Z,8.90
2022-09-30T01:43:46.178Z,8.90
2022-09-30T01:46:27.718Z,8.90
2022-09-30T01:49:03.526Z,8.90
2022-09-30T01:51:35.752Z,8.90
2022-09-30T01:54:06.505Z,8.90
2022-09-30T01:56:44.898Z,8.90
2022-09-30T01:59:30.729Z,8.90
2022-09-30T02:02:08.330Z,8.90
2022-09-30T02:04:48.573Z,8.90
2022-09-30T02:07:39.514Z,8.90
2022-09-30T02:10:14.252Z,8.90
2022-09-30T02:12:50.016Z,8.90
2022-09-30T02:15:26.091Z,8.90
2022-09-30T02:17:58.509Z,8.90
2022-09-30T02:20:29.479Z,8.90
2022-09-30T02:23:09.765Z,8.90
2022-09-30T02:25:42.755Z,8.90
2022-09-30T02:28:14.246Z,8.90
2022-09-30T02:30:47.672Z,8.90
2022-09-30T02:33:32.325Z,8.90
2022-09-30T02:36:09.742Z,8.90
2022-09-30T02:38:54.954Z,8.90
2022-09-30T02:41:26.508Z,8.90
2022-09-30T02:43:55.505Z,8.90
2022-09-30T02:46:28.227Z,8.90
2022-09-30T02:49:13.871Z,8.90
2022-09-30T02:51:53.997Z,8.90
2022-09-30T02:54:29.627Z,8.90
2022-09-30T02:57:24.435Z,8.90
2022-09-30T02:59:52.905Z,8.90
2022-09-30T03:02:21.766Z,8.90
2022-09-30T03:04:51.073Z,8.90
2022-09-30T03:07:18.169Z,8.90
2022-09-30T03:09:45.550Z,8.90
2022-09-30T03:12:28.200Z,8.90
2022-09-30T03:15:49.114Z,8.90
2022-09-30T03:18:53.829Z,8.90
2022-09-30T03:21:30.269Z,8.90
2022-09-30T03:24:24.218Z,8.90
2022-09-30T03:27:10.094Z,8.90
2022-09-30T03:29:55.221Z,8.90
2022-09-30T03:32:57.962Z,8.90
2022-09-30T03:35:49.011Z,8.90
2022-09-30T03:38:38.880Z,8.90
2022-09-30T03:41:09.285Z,8.90
2022-09-30T03:43:43.369Z,8.90
2022-09-30T03:46:26.997Z,8.90
2022-09-30T03:48:59.113Z,8.90
2022-09-30T03:51:29.336Z,8.90
2022-09-30T03:53:58.822Z,8.90
2022-09-30T03:56:31.755Z,8.90
2022-09-30T03:59:00.363Z,8.80
2022-09-30T04:01:29.342Z,8.90
2022-09-30T04:03:58.607Z,8.90
2022-09-30T04:06:25.912Z,8.90
2022-09-30T04:08:54.039Z,8.90
2022-09-30T04:11:21.771Z,8.90
2022-09-30T04:13:49.322Z,8.80
2022-09-30T04:16:17.870Z,8.80
2022-09-30T04:18:45.405Z,8.80
2022-09-30T04:21:13.889Z,8.90
2022-09-30T04:23:43.590Z,8.90
2022-09-30T04:26:13.808Z,8.80
2022-09-30T04:28:43.861Z,8.80
2022-09-30T04:31:13.129Z,8.80
2022-09-30T04:33:40.912Z,8.80
2022-09-30T04:36:07.974Z,8.80
2022-09-30T04:38:34.818Z,8.80
2022-09-30T04:41:04.263Z,8.80
2022-09-30T04:43:31.690Z,8.80
2022-09-30T04:45:59.688Z,8.80
2022-09-30T04:48:28.066Z,8.80
2022-09-30T04:50:55.594Z,8.80
2022-09-30T04:53:22.620Z,8.80
2022-09-30T04:55:50.337Z,8.80
2022-09-30T04:58:18.149Z,8.80
2022-09-30T05:00:45.738Z,8.80
2022-09-30T05:03:13.249Z,8.80
2022-09-30T05:05:44.274Z,8.80
2022-09-30T05:08:12.550Z,8.80
2022-09-30T05:10:40.874Z,8.70
2022-09-30T05:13:09.058Z,8.80
2022-09-30T05:15:38.879Z,8.80
2022-09-30T05:18:06.346Z,8.80
2022-09-30T05:20:33.938Z,8.80
2022-09-30T05:23:01.602Z,8.80
2022-09-30T05:25:29.347Z,8.80
2022-09-30T05:27:56.961Z,8.80
2022-09-30T05:30:25.377Z,8.80
2022-09-30T05:32:53.552Z,8.80
2022-09-30T05:35:20.530Z,8.80
2022-09-30T05:37:48.106Z,8.80
2022-09-30T05:40:15.780Z,8.80
2022-09-30T05:42:46.356Z,8.80
2022-09-30T05:45:14.198Z,8.80
2022-09-30T05:47:42.776Z,8.80
2022-09-30T05:50:10.349Z,8.80
2022-09-30T05:52:37.184Z,8.80
2022-09-30T05:55:04.327Z,8.80
2022-09-30T05:57:32.533Z,8.80
2022-09-30T06:00:01.801Z,8.80
2022-09-30T06:02:30.159Z,8.80
2022-09-30T06:04:58.553Z,8.80
2022-09-30T06:07:26.294Z,8.80
2022-09-30T06:09:53.892Z,8.90
2022-09-30T06:12:21.462Z,8.90
2022-09-30T06:14:48.959Z,8.90
2022-09-30T06:17:17.390Z,8.90
2022-09-30T06:19:45.566Z,8.90
2022-09-30T06:22:13.074Z,8.90
2022-09-30T06:24:41.786Z,9.00
2022-09-30T06:27:10.024Z,9.00
2022-09-30T06:29:38.590Z,9.00
2022-09-30T06:32:07.825Z,9.10
2022-09-30T06:34:35.385Z,9.00
2022-09-30T06:37:04.117Z,9.10
2022-09-30T06:39:33.129Z,9.10
2022-09-30T06:41:59.978Z,9.10
2022-09-30T06:44:27.566Z,9.20
2022-09-30T06:46:55.186Z,9.20
2022-09-30T06:49:23.763Z,9.20
2022-09-30T06:51:52.412Z,9.30
2022-09-30T06:54:22.805Z,9.30
2022-09-30T06:56:50.552Z,9.40
2022-09-30T06:59:19.776Z,9.40
2022-09-30T07:01:47.363Z,9.40
2022-09-30T07:04:15.033Z,9.50
2022-09-30T07:06:43.643Z,9.50
2022-09-30T07:09:12.240Z,9.50
2022-09-30T07:11:40.506Z,9.60
2022-09-30T07:14:09.590Z,9.70
2022-09-30T07:16:38.579Z,9.70
2022-09-30T07:19:10.172Z,9.80
2022-09-30T07:21:39.209Z,9.80
2022-09-30T07:24:06.887Z,9.80
2022-09-30T07:26:34.890Z,9.90
2022-09-30T07:29:03.182Z,9.90
2022-09-30T07:31:33.987Z,9.90
2022-09-30T07:34:07.259Z,10.00
2022-09-30T07:36:37.931Z,10.00
2022-09-30T07:39:08.334Z,10.00
2022-09-30T07:41:37.764Z,10.00
2022-09-30T07:44:07.481Z,10.00
2022-09-30T07:46:39.127Z,10.00
2022-09-30T07:49:12.489Z,10.10
2022-09-30T07:51:45.216Z,10.10
2022-09-30T07:54:15.703Z,10.20
2022-09-30T07:57:08.707Z,10.20
2022-09-30T07:59:37.348Z,10.20
2022-09-30T08:02:07.775Z,10.20
2022-09-30T08:04:38.165Z,10.20
2022-09-30T08:07:08.933Z,10.30
2022-09-30T08:09:37.811Z,10.30
2022-09-30T08:12:05.572Z,10.30
2022-09-30T08:14:32.884Z,10.40
2022-09-30T08:17:01.419Z,10.40
2022-09-30T08:19:30.326Z,10.50
2022-09-30T08:21:58.447Z,10.60
2022-09-30T08:24:27.088Z,10.50
2022-09-30T08:26:55.522Z,10.60
2022-09-30T08:29:50.433Z,10.60
2022-09-30T08:32:10.285Z,10.60
2022-09-30T08:34:37.282Z,10.60
2022-09-30T08:37:08.807Z,10.60
2022-09-30T08:39:40.146Z,10.70
2022-09-30T08:42:36.658Z,10.70
2022-09-30T08:45:35.600Z,10.70
2022-09-30T08:48:43.505Z,10.80
2022-09-30T08:51:45.537Z,10.80
2022-09-30T08:54:16.795Z,10.90
2022-09-30T08:56:46.113Z,10.90
2022-09-30T08:59:31.030Z,11.00
2022-09-30T09:02:27.686Z,11.00
2022-09-30T09:04:59.338Z,11.00
2022-09-30T09:07:45.509Z,11.10
2022-09-30T09:10:24.155Z,11.10
2022-09-30T09:13:16.251Z,11.10
2022-09-30T09:16:05.129Z,11.10
2022-09-30T09:18:38.465Z,11.20
2022-09-30T09:21:21.234Z,11.20
2022-09-30T09:23:56.176Z,11.20
2022-09-30T09:26:26.075Z,11.30
2022-09-30T09:29:06.593Z,11.30
2022-09-30T09:31:33.540Z,11.30
2022-09-30T09:34:10.389Z,11.40
2022-09-30T09:36:56.044Z,11.40
2022-09-30T09:39:55.537Z,11.30
2022-09-30T09:42:42.707Z,11.40
2022-09-30T09:45:19.601Z,11.50
2022-09-30T09:47:52.610Z,11.60
2022-09-30T09:50:27.841Z,11.60
2022-09-30T09:53:11.193Z,11.70
2022-09-30T09:55:39.407Z,11.80
2022-09-30T09:58:14.244Z,11.70
2022-09-30T10:00:47.870Z,11.70
2022-09-30T10:03:21.246Z,11.80
2022-09-30T10:06:06.657Z,11.80
2022-09-30T10:08:39.766Z,11.80
2022-09-30T10:11:26.152Z,11.80
2022-09-30T10:13:58.266Z,11.90
2022-09-30T10:16:37.710Z,12.00
2022-09-30T10:19:22.620Z,12.00
2022-09-30T10:21:52.842Z,12.00
2022-09-30T10:24:29.345Z,12.10
2022-09-30T10:26:58.406Z,12.00
2022-09-30T10:29:35.095Z,12.00
2022-09-30T10:32:08.006Z,12.00
2022-09-30T10:34:40.192Z,12.00
2022-09-30T10:37:19.302Z,12.10
2022-09-30T10:40:13.246Z,12.10
2022-09-30T10:42:41.978Z,12.20
2022-09-30T10:45:22.746Z,12.20
2022-09-30T10:47:54.250Z,12.20
2022-09-30T10:50:25.054Z,12.30
2022-09-30T10:53:11.308Z,12.30
2022-09-30T10:55:44.605Z,12.40
2022-09-30T10:58:35.849Z,12.30
2022-09-30T11:01:13.407Z,12.30
2022-09-30T11:04:03.610Z,12.30
2022-09-30T11:06:33.716Z,12.40
2022-09-30T11:09:29.117Z,12.40
2022-09-30T11:12:02.688Z,12.50
2022-09-30T11:14:40.034Z,12.50
2022-09-30T11:17:28.717Z,12.50
2022-09-30T11:20:10.348Z,12.50
2022-09-30T11:22:39.953Z,12.60
2022-09-30T11:25:17.437Z,12.60
2022-09-30T11:27:56.999Z,12.60
2022-09-30T11:30:57.119Z,12.70
2022-09-30T11:33:44.118Z,12.70
2022-09-30T11:36:27.948Z,12.70
2022-09-30T11:38:57.725Z,12.80
2022-09-30T11:41:34.733Z,12.70
2022-09-30T11:44:34.535Z,12.70
2022-09-30T11:47:25.764Z,12.60
2022-09-30T11:50:16.607Z,12.70
2022-09-30T11:53:25.564Z,12.70
2022-09-30T11:56:27.996Z,12.60
2022-09-30T11:59:00.855Z,12.70
2022-09-30T12:01:34.635Z,12.70
2022-09-30T12:04:21.795Z,12.70
2022-09-30T12:07:01.536Z,12.80
2022-09-30T12:09:42.530Z,12.80
2022-09-30T12:12:17.069Z,12.80
2022-09-30T12:15:06.931Z,12.80
2022-09-30T12:17:55.773Z,12.80
2022-09-30T12:20:38.592Z,12.80
2022-09-30T12:23:16.731Z,12.70
2022-09-30T12:25:51.870Z,12.80
2022-09-30T12:28:46.615Z,12.70
2022-09-30T12:31:30.634Z,12.70
2022-09-30T12:34:07.508Z,12.80
2022-09-30T12:37:00.577Z,12.70
2022-09-30T12:39:40.933Z,12.70
2022-09-30T12:42:28.044Z,12.70
2022-09-30T12:45:08.050Z,12.70
2022-09-30T12:47:46.089Z,12.70
2022-09-30T12:50:20.090Z,12.70
2022-09-30T12:52:48.610Z,12.70
2022-09-30T12:55:31.209Z,12.80
2022-09-30T12:58:03.144Z,12.80
2022-09-30T13:00:36.041Z,12.80
2022-09-30T13:03:15.877Z,12.80
2022-09-30T13:05:43.763Z,12.80
2022-09-30T13:08:24.880Z,12.80
2022-09-30T13:11:04.546Z,12.80
2022-09-30T13:13:34.642Z,12.80
2022-09-30T13:16:03.844Z,12.80
2022-09-30T13:18:31.535Z,12.80
2022-09-30T13:21:05.120Z,12.70
2022-09-30T13:23:39.699Z,12.70
2022-09-30T13:26:29.295Z,12.70
2022-09-30T13:29:02.981Z,12.70
2022-09-30T13:31:32.832Z,12.70
2022-09-30T13:34:06.975Z,12.70
2022-09-30T13:36:42.869Z,12.70
2022-09-30T13:39:25.750Z,12.70
2022-09-30T13:42:29.214Z,12.70
2022-09-30T13:45:31.929Z,12.70
2022-09-30T13:48:10.982Z,12.80
2022-09-30T13:50:53.207Z,12.70
2022-09-30T13:53:42.845Z,12.70
2022-09-30T13:56:25.893Z,12.80
2022-09-30T13:59:17.966Z,12.80
2022-09-30T14:02:13.166Z,12.80
2022-09-30T14:05:07.974Z,12.80
2022-09-30T14:08:00.387Z,12.80
2022-09-30T14:11:05.526Z,12.80
2022-09-30T14:13:51.096Z,12.70
2022-09-30T14:16:44.866Z,12.70
2022-09-30T14:19:34.136Z,12.70
2022-09-30T14:22:10.325Z,12.70
2022-09-30T14:24:42.913Z,12.70
2022-09-30T14:27:52.325Z,12.70
2022-09-30T14:30:19.851Z,12.80
2022-09-30T14:32:58.961Z,12.80
2022-09-30T14:35:33.800Z,12.80
2022-09-30T14:38:25.179Z,12.80
2022-09-30T14:40:56.955Z,12.80
2022-09-30T14:43:36.684Z,12.80
2022-09-30T14:46:14.797Z,12.80
2022-09-30T14:48:45.625Z,12.80
2022-09-30T14:51:20.182Z,12.70
2022-09-30T14:54:02.242Z,12.70
2022-09-30T14:56:35.535Z,12.70
2022-09-30T14:59:22.574Z,12.70
2022-09-30T15:01:52.434Z,12.60
2022-09-30T15:04:26.276Z,12.60
2022-09-30T15:06:56.733Z,12.50
2022-09-30T15:09:38.772Z,12.50
2022-09-30T15:12:26.823Z,12.50
2022-09-30T15:14:57.041Z,12.40
2022-09-30T15:17:35.466Z,12.40
2022-09-30T15:20:24.063Z,12.30
2022-09-30T15:22:53.925Z,12.30
2022-09-30T15:25:22.655Z,12.20
2022-09-30T15:27:51.344Z,12.20
2022-09-30T15:30:19.813Z,12.20
2022-09-30T15:32:50.388Z,12.20
2022-09-30T15:35:21.867Z,12.10
2022-09-30T15:37:51.534Z,12.10
2022-09-30T15:40:41.088Z,12.10
2022-09-30T15:43:11.845Z,12.10
2022-09-30T15:45:43.961Z,12.00
2022-09-30T15:48:26.508Z,11.90
2022-09-30T15:51:01.185Z,11.90
2022-09-30T15:53:46.431Z,11.90
2022-09-30T15:56:37.043Z,11.80
2022-09-30T15:59:13.482Z,11.80
2022-09-30T16:01:40.365Z,11.80
2022-09-30T16:04:24.445Z,11.70
2022-09-30T16:06:59.657Z,11.70
2022-09-30T16:09:39.505Z,11.60
2022-09-30T16:12:14.199Z,11.60
2022-09-30T16:14:54.261Z,11.50
2022-09-30T16:17:35.542Z,11.50
2022-09-30T16:20:11.743Z,11.40
2022-09-30T16:22:40.623Z,11.30
2022-09-30T16:25:16.050Z,11.20
2022-09-30T16:27:44.449Z,11.00
2022-09-30T16:30:18.808Z,11.00
2022-09-30T16:32:50.162Z,10.90
2022-09-30T16:35:24.724Z,10.70
2022-09-30T16:38:02.500Z,10.60
2022-09-30T16:40:32.889Z,10.50
2022-09-30T16:43:05.526Z,10.50
2022-09-30T16:45:36.705Z,10.40
2022-09-30T16:48:14.867Z,10.30
2022-09-30T16:50:49.416Z,10.30
2022-09-30T16:53:16.293Z,10.20
2022-09-30T16:55:44.963Z,10.20
2022-09-30T16:58:13.323Z,10.10
2022-09-30T17:00:46.474Z,10.10
2022-09-30T17:03:17.674Z,10.00
2022-09-30T17:05:52.581Z,10.00
2022-09-30T17:08:24.076Z,9.90
2022-09-30T17:10:54.334Z,10.00
2022-09-30T17:13:23.168Z,9.90
2022-09-30T17:15:52.413Z,9.90
2022-09-30T17:18:20.877Z,9.80
2022-09-30T17:20:53.766Z,9.70
2022-09-30T17:23:24.303Z,9.60
2022-09-30T17:25:54.716Z,9.50
2022-09-30T17:28:23.466Z,9.50
2022-09-30T17:30:52.099Z,9.40
2022-09-30T17:33:20.330Z,9.30
2022-09-30T17:35:59.569Z,9.30
2022-09-30T17:38:28.153Z,9.30
2022-09-30T17:41:14.539Z,9.30
2022-09-30T17:43:41.632Z,9.20
2022-09-30T17:46:10.101Z,9.20
2022-09-30T17:48:39.477Z,9.10
2022-09-30T17:51:08.370Z,9.10
2022-09-30T17:53:38.159Z,9.00
2022-09-30T17:56:14.157Z,9.10
2022-09-30T17:58:47.383Z,9.00
2022-09-30T18:01:20.483Z,9.00
2022-09-30T18:03:53.009Z,9.10
2022-09-30T18:06:21.654Z,9.10
2022-09-30T18:08:49.692Z,9.10
2022-09-30T18:11:26.157Z,9.10
2022-09-30T18:13:59.558Z,9.00
2022-09-30T18:16:30.901Z,9.00
2022-09-30T18:19:01.863Z,9.00
2022-09-30T18:21:31.828Z,9.00
2022-09-30T18:24:00.590Z,9.00
2022-09-30T18:26:33.267Z,9.10
2022-09-30T18:29:03.694Z,9.00
2022-09-30T18:31:37.429Z,9.10
2022-09-30T18:34:07.391Z,9.10
2022-09-30T18:36:37.297Z,9.00
2022-09-30T18:39:05.733Z,9.00
2022-09-30T18:41:37.350Z,8.90
2022-09-30T18:44:07.182Z,9.00
2022-09-30T18:46:36.105Z,9.10
2022-09-30T18:49:04.555Z,9.10
2022-09-30T18:51:32.953Z,9.10
2022-09-30T18:54:01.217Z,9.00
2022-09-30T18:56:32.265Z,9.10
2022-09-30T18:59:04.397Z,9.10
2022-09-30T19:01:33.941Z,9.20
2022-09-30T19:04:03.319Z,9.20
2022-09-30T19:06:30.373Z,9.30
2022-09-30T19:08:58.576Z,9.30
2022-09-30T19:11:27.819Z,9.30
2022-09-30T19:14:01.258Z,9.30
2022-09-30T19:16:35.279Z,9.30
2022-09-30T19:19:08.209Z,9.30
2022-09-30T19:21:37.166Z,9.40
2022-09-30T19:24:07.816Z,9.40
2022-09-30T19:26:38.299Z,9.50
2022-09-30T19:29:09.694Z,9.50
2022-09-30T19:31:37.791Z,9.50
2022-09-30T19:34:06.275Z,9.50
2022-09-30T19:36:45.898Z,9.50
2022-09-30T19:39:18.069Z,9.50
2022-09-30T19:41:47.289Z,9.60
2022-09-30T19:44:20.021Z,9.60
2022-09-30T19:46:51.728Z,9.70
2022-09-30T19:49:21.631Z,9.70
2022-09-30T19:51:52.635Z,9.80
2022-09-30T19:54:37.658Z,9.90
2022-09-30T19:57:10.615Z,9.90
2022-09-30T19:59:38.117Z,10.00
2022-09-30T20:02:07.112Z,10.00
2022-09-30T20:04:35.291Z,10.10
2022-09-30T20:07:02.841Z,10.10
2022-09-30T20:09:30.662Z,10.20
2022-09-30T20:11:59.677Z,10.20
2022-09-30T20:14:45.856Z,10.30
2022-09-30T20:17:13.511Z,10.40
2022-09-30T20:19:41.680Z,10.40
2022-09-30T20:22:09.342Z,10.50
2022-09-30T20:24:38.344Z,10.60
2022-09-30T20:27:05.833Z,10.60
2022-09-30T20:29:33.517Z,10.60
2022-09-30T20:32:02.262Z,10.60
2022-09-30T20:34:29.788Z,10.60
2022-09-30T20:36:57.385Z,10.60
2022-09-30T20:39:24.248Z,10.70
2022-09-30T20:41:54.599Z,10.70
2022-09-30T20:44:22.158Z,10.70
2022-09-30T20:46:49.944Z,10.60
2022-09-30T20:49:18.310Z,10.70
2022-09-30T20:51:45.902Z,10.60
2022-09-30T20:54:14.090Z,10.60
2022-09-30T20:57:05.865Z,10.60
2022-09-30T20:59:29.375Z,10.60
2022-09-30T21:01:56.245Z,10.60
2022-09-30T21:04:23.146Z,10.60
2022-09-30T21:06:50.706Z,10.60
2022-09-30T21:09:18.235Z,10.50
2022-09-30T21:11:47.010Z,10.60
2022-09-30T21:14:18.121Z,10.50
2022-09-30T21:16:45.778Z,10.50
2022-09-30T21:19:13.369Z,10.50
2022-09-30T21:21:40.204Z,10.50
2022-09-30T21:24:07.905Z,10.50
2022-09-30T21:26:35.648Z,10.60
2022-09-30T21:29:04.452Z,10.50
2022-09-30T21:31:33.623Z,10.60
2022-09-30T21:34:02.026Z,10.60
2022-09-30T21:36:32.247Z,10.50
2022-09-30T21:39:02.519Z,10.60
2022-09-30T21:41:31.799Z,10.60
2022-09-30T21:44:00.429Z,10.60
2022-09-30T21:46:29.588Z,10.60
2022-09-30T21:49:18.303Z,10.50
2022-09-30T21:51:47.049Z,10.60
2022-09-30T21:54:15.663Z,10.50
2022-09-30T21:56:44.031Z,10.50
2022-09-30T21:59:12.921Z,10.50
2022-09-30T22:01:41.045Z,10.40
2022-09-30T22:04:10.015Z,10.40
2022-09-30T22:06:37.981Z,10.40
2022-09-30T22:09:05.579Z,10.30
2022-09-30T22:11:36.250Z,10.30
2022-09-30T22:14:03.512Z,10.30
2022-09-30T22:16:34.983Z,10.30
2022-09-30T22:19:05.161Z,10.20
2022-09-30T22:21:35.522Z,10.20
2022-09-30T22:24:05.261Z,10.20
2022-09-30T22:26:33.307Z,10.20
2022-09-30T22:29:04.241Z,10.20
2022-09-30T22:31:32.830Z,10.20
2022-09-30T22:34:23.701Z,10.30
2022-09-30T22:37:11.200Z,10.30
2022-09-30T22:39:38.728Z,10.30
2022-09-30T22:42:07.395Z,10.40
2022-09-30T22:44:37.183Z,10.40
2022-09-30T22:47:09.313Z,10.40
2022-09-30T22:49:36.246Z,10.50
2022-09-30T22:52:04.803Z,10.50
2022-09-30T22:54:35.292Z,10.60
2022-09-30T22:57:04.536Z,10.70
2022-09-30T22:59:32.689Z,10.70
2022-09-30T23:02:01.215Z,10.80
2022-09-30T23:04:31.409Z,10.80
2022-09-30T23:06:59.121Z,10.80
2022-09-30T23:09:26.982Z,10.90
2022-09-30T23:11:56.993Z,10.90
2022-09-30T23:14:26.190Z,10.90
2022-09-30T23:16:55.040Z,10.90
2022-09-30T23:19:23.294Z,10.90
2022-09-30T23:21:51.181Z,10.90
2022-09-30T23:24:18.113Z,11.00
2022-09-30T23:26:47.946Z,11.00
2022-09-30T23:29:16.566Z,11.00
2022-09-30T23:31:44.229Z,11.00
2022-09-30T23:34:12.699Z,11.00
2022-09-30T23:36:39.625Z,11.00
2022-09-30T23:39:20.194Z,11.00
2022-09-30T23:41:48.665Z,11.00
2022-09-30T23:44:19.409Z,11.00
2022-09-30T23:47:06.478Z,11.00
2022-09-30T23:49:35.845Z,11.00
2022-09-30T23:52:08.037Z,11.00
2022-09-30T23:54:41.571Z,11.00
2022-09-30T23:57:10.587Z,11.00
2022-09-30T23:59:38.728Z,11.00
